KPPF/PPF METAR and TAF weather

Enter ICAO airport designator
Station Type Date Time Source
KPPF METAR 2019/12/13 02:52 UTC NOAA

KPPF 130252Z AUTO 17003KT 10SM BKN048 07/M01 A3005 RMK AO2 SLP178 T00721011 50000


Station Type Date Time Source
KPPF Decoded METAR 2019/12/13 02:52 UTC NOAA

PARSONS TRI-CITY AIRPORT, KS, United States (KPPF) 37-20N 95-30W 274M
Dec 12, 2019 - 09:52 PM EST / 2019.12.13 0252 UTC
Wind: from the S (170 degrees) at 3 MPH (3 KT):0
Visibility: 10 mile(s):0
Sky conditions: mostly cloudy
Temperature: 45.0 F (7.2 C)
Dew Point: 30.0 F (-1.1 C)
Relative Humidity: 55%
Pressure (altimeter): 30.05 in. Hg (1017 hPa)
Pressure tendency: 0.00 inches (0.0 hPa) higher than three hours ago
ob: KPPF 130252Z AUTO 17003KT 10SM BKN048 07/M01 A3005 RMK AO2 SLP178 T00721011 50000
cycle: 3

Station Type Date Time Source
KPPF TAF UTC NOAA

Error!

Example: see airport list